Terminal Aerodrome Forecast
Issued by NWS Northern Indiana

Home | Current Version | Previous Version | Text Only | Print | Product List | Glossary On
Versions: 1 2 3 4 5 6 7 8 9 10 11 12 13 14 15 16 17
000
FTUS43 KIWX 010749 AAA
TAFFWA
TAF AMD
KFWA 010749Z 0108/0206 06008KT 1SM -DZ BR OVC003
      TEMPO 0108/0110 2SM -DZ BR
     FM011500 02004KT 3SM BR OVC010
     FM011700 34007KT P6SM VCSH BKN025
     FM012100 36007KT 4SM -SHRA BR BKN035=

USA.gov is the U.S. government's official web portal to all federal, state and local government web resources and services.